createdAt,value
2017-10-29T00:00:22.315Z,9.38
2017-10-29T00:01:22.358Z,9.40
2017-10-29T00:02:22.406Z,9.46
2017-10-29T00:03:22.452Z,9.45
2017-10-29T00:04:22.563Z,9.45
2017-10-29T00:05:22.543Z,9.43
2017-10-29T00:06:22.590Z,9.50
2017-10-29T00:07:22.634Z,9.53
2017-10-29T00:08:22.680Z,9.61
2017-10-29T00:09:22.791Z,9.60
2017-10-29T00:10:22.771Z,9.58
2017-10-29T00:11:22.818Z,9.61
2017-10-29T00:12:22.864Z,9.53
2017-10-29T00:13:22.908Z,9.50
2017-10-29T00:14:23.038Z,9.50
2017-10-29T00:15:22.998Z,9.46
2017-10-29T00:16:23.046Z,9.48
2017-10-29T00:17:23.094Z,9.50
2017-10-29T00:18:23.137Z,9.46
2017-10-29T00:19:23.252Z,9.48
2017-10-29T00:20:23.299Z,9.49
2017-10-29T00:21:23.275Z,9.56
2017-10-29T00:22:23.322Z,9.52
2017-10-29T00:23:23.373Z,9.58
2017-10-29T00:24:23.414Z,9.50
2017-10-29T00:25:23.524Z,9.48
2017-10-29T00:26:23.505Z,9.46
2017-10-29T00:27:23.549Z,9.53
2017-10-29T00:28:23.595Z,9.53
2017-10-29T00:29:23.646Z,9.57
2017-10-29T00:30:23.752Z,9.58
2017-10-29T00:31:23.733Z,9.76
2017-10-29T00:32:23.780Z,9.82
2017-10-29T00:33:23.829Z,9.89
2017-10-29T00:34:23.871Z,9.83
2017-10-29T00:35:23.981Z,9.83
2017-10-29T00:36:23.964Z,9.86
2017-10-29T00:37:24.008Z,9.86
2017-10-29T00:38:24.057Z,9.81
2017-10-29T00:39:24.098Z,9.81
2017-10-29T00:40:24.209Z,9.79
2017-10-29T00:41:24.192Z,9.76
2017-10-29T00:42:24.235Z,9.75
2017-10-29T00:43:24.288Z,9.76
2017-10-29T00:44:24.327Z,9.66
2017-10-29T00:45:24.437Z,9.53
2017-10-29T00:46:24.419Z,9.56
2017-10-29T00:47:24.465Z,9.56
2017-10-29T00:48:24.510Z,9.68
2017-10-29T00:49:24.555Z,9.75
2017-10-29T00:50:24.684Z,9.88
2017-10-29T00:51:24.654Z,9.82
2017-10-29T00:52:24.694Z,9.86
2017-10-29T00:53:24.739Z,9.91
2017-10-29T00:54:24.786Z,9.93
2017-10-29T00:55:24.896Z,9.97
2017-10-29T00:56:24.940Z,9.86
2017-10-29T00:57:24.920Z,9.85
2017-10-29T00:58:24.966Z,9.88
2017-10-29T00:59:25.014Z,9.89
2017-10-29T01:00:25.063Z,9.83
2017-10-29T01:01:25.169Z,9.88
2017-10-29T01:02:25.151Z,9.86
2017-10-29T01:03:25.198Z,9.86
2017-10-29T01:04:25.247Z,9.91
2017-10-29T01:05:25.289Z,10.00
2017-10-29T01:06:25.399Z,9.89
2017-10-29T01:07:25.382Z,9.94
2017-10-29T01:08:25.426Z,9.96
2017-10-29T01:09:25.471Z,9.93
2017-10-29T01:10:25.517Z,10.06
2017-10-29T01:11:25.630Z,10.04
2017-10-29T01:12:25.609Z,10.09
2017-10-29T01:13:25.653Z,10.10
2017-10-29T01:14:25.710Z,10.07
2017-10-29T01:15:25.749Z,10.04
2017-10-29T01:16:25.858Z,10.07
2017-10-29T01:17:25.842Z,10.06
2017-10-29T01:18:25.885Z,9.94
2017-10-29T01:19:25.932Z,10.01
2017-10-29T01:20:25.982Z,9.93
2017-10-29T01:21:26.086Z,9.94
2017-10-29T01:22:26.069Z,9.93
2017-10-29T01:23:26.115Z,10.03
2017-10-29T01:24:26.162Z,9.94
2017-10-29T01:25:26.206Z,9.82
2017-10-29T01:26:26.325Z,9.81
2017-10-29T01:27:26.296Z,9.83
2017-10-29T01:28:26.343Z,9.83
2017-10-29T01:29:26.390Z,9.82
2017-10-29T01:30:26.437Z,9.83
2017-10-29T01:31:26.568Z,9.86
2017-10-29T01:32:26.534Z,9.86
2017-10-29T01:33:26.574Z,9.86
2017-10-29T01:34:26.621Z,9.82
2017-10-29T01:35:26.665Z,9.78
2017-10-29T01:36:26.787Z,9.78
2017-10-29T01:37:26.761Z,9.73
2017-10-29T01:38:26.806Z,9.70
2017-10-29T01:39:26.852Z,9.79
2017-10-29T01:40:26.896Z,9.70
2017-10-29T01:41:27.026Z,9.68
2017-10-29T01:42:26.986Z,9.70
2017-10-29T01:43:27.034Z,9.71
2017-10-29T01:44:27.080Z,9.76
2017-10-29T01:45:27.127Z,9.68
2017-10-29T01:46:27.237Z,9.64
2017-10-29T01:47:27.281Z,9.75
2017-10-29T01:48:27.264Z,9.68
2017-10-29T01:49:27.310Z,9.63
2017-10-29T01:50:27.355Z,9.66
2017-10-29T01:51:27.401Z,9.61
2017-10-29T01:52:27.518Z,9.61
2017-10-29T01:53:27.500Z,9.56
2017-10-29T01:54:27.545Z,9.71
2017-10-29T01:55:27.585Z,9.66
2017-10-29T01:56:27.632Z,9.68
2017-10-29T01:57:27.742Z,9.76
2017-10-29T01:58:27.723Z,9.73
2017-10-29T01:59:27.769Z,9.68
2017-10-29T02:00:27.816Z,9.67
2017-10-29T02:01:27.883Z,9.58
2017-10-29T02:02:27.979Z,9.57
2017-10-29T02:03:27.954Z,9.57
2017-10-29T02:04:28.000Z,9.58
2017-10-29T02:05:28.045Z,9.53
2017-10-29T02:06:28.091Z,9.50
2017-10-29T02:07:28.201Z,9.56
2017-10-29T02:08:28.192Z,9.56
2017-10-29T02:09:28.229Z,9.56
2017-10-29T02:10:28.278Z,9.56
2017-10-29T02:11:28.322Z,9.60
2017-10-29T02:12:28.432Z,9.64
2017-10-29T02:13:28.413Z,9.57
2017-10-29T02:14:28.459Z,9.58
2017-10-29T02:15:28.504Z,9.56
2017-10-29T02:16:28.550Z,9.58
2017-10-29T02:17:28.664Z,9.67
2017-10-29T02:18:28.644Z,9.68
2017-10-29T02:19:28.691Z,9.66
2017-10-29T02:20:28.738Z,9.56
2017-10-29T02:21:28.784Z,9.58
2017-10-29T02:22:28.899Z,9.58
2017-10-29T02:23:28.874Z,9.58
2017-10-29T02:24:28.918Z,9.64
2017-10-29T02:25:28.963Z,9.66
2017-10-29T02:26:29.009Z,9.68
2017-10-29T02:27:29.119Z,9.67
2017-10-29T02:28:29.103Z,9.70
2017-10-29T02:29:29.149Z,9.68
2017-10-29T02:30:29.196Z,9.75
2017-10-29T02:31:29.241Z,9.73
2017-10-29T02:32:29.364Z,9.68
2017-10-29T02:33:29.330Z,9.68
2017-10-29T02:34:29.377Z,9.73
2017-10-29T02:35:29.429Z,9.63
2017-10-29T02:36:29.467Z,9.64
2017-10-29T02:37:29.600Z,9.56
2017-10-29T02:38:29.561Z,9.57
2017-10-29T02:39:29.641Z,9.58
2017-10-29T02:40:29.649Z,9.60
2017-10-29T02:41:29.699Z,9.68
2017-10-29T02:42:29.810Z,9.68
2017-10-29T02:43:29.856Z,9.70
2017-10-29T02:44:29.836Z,9.66
2017-10-29T02:45:29.880Z,9.67
2017-10-29T02:46:29.927Z,9.71
2017-10-29T02:47:29.974Z,9.67
2017-10-29T02:48:30.089Z,9.61
2017-10-29T02:49:30.065Z,9.63
2017-10-29T02:50:30.114Z,9.57
2017-10-29T02:51:30.157Z,9.57
2017-10-29T02:52:30.222Z,9.67
2017-10-29T02:53:30.312Z,9.66
2017-10-29T02:54:30.296Z,9.76
2017-10-29T02:55:30.342Z,9.70
2017-10-29T02:56:30.392Z,9.75
2017-10-29T02:57:30.433Z,9.64
2017-10-29T02:58:30.543Z,9.75
2017-10-29T02:59:30.526Z,9.76
2017-10-29T03:00:30.573Z,9.66
2017-10-29T03:01:30.616Z,9.76
2017-10-29T03:02:30.666Z,9.76
2017-10-29T03:03:30.773Z,9.68
2017-10-29T03:04:30.754Z,9.64
2017-10-29T03:05:30.801Z,9.64
2017-10-29T03:06:30.847Z,9.67
2017-10-29T03:07:30.891Z,9.68
2017-10-29T03:08:31.005Z,9.75
2017-10-29T03:09:30.985Z,9.71
2017-10-29T03:10:31.029Z,9.71
2017-10-29T03:11:31.075Z,9.76
2017-10-29T03:12:31.125Z,9.81
2017-10-29T03:13:31.251Z,9.83
2017-10-29T03:14:31.213Z,9.91
2017-10-29T03:15:31.259Z,9.96
2017-10-29T03:16:31.307Z,10.07
2017-10-29T03:17:31.366Z,9.97
2017-10-29T03:18:31.477Z,10.07
2017-10-29T03:19:31.443Z,10.15
2017-10-29T03:20:31.490Z,10.14
2017-10-29T03:21:31.538Z,10.03
2017-10-29T03:22:31.578Z,10.00
2017-10-29T03:23:31.710Z,10.01
2017-10-29T03:24:31.675Z,9.97
2017-10-29T03:25:31.721Z,9.96
2017-10-29T03:26:31.765Z,10.12
2017-10-29T03:27:31.812Z,10.10
2017-10-29T03:28:31.922Z,10.04
2017-10-29T03:29:31.966Z,10.18
2017-10-29T03:30:31.950Z,10.21
2017-10-29T03:31:31.996Z,10.26
2017-10-29T03:32:32.043Z,10.34
2017-10-29T03:33:32.087Z,10.30
2017-10-29T03:34:32.200Z,10.25
2017-10-29T03:35:32.185Z,10.34
2017-10-29T03:36:32.230Z,10.33
2017-10-29T03:37:32.271Z,10.53
2017-10-29T03:38:32.317Z,10.60
2017-10-29T03:39:32.429Z,10.63
2017-10-29T03:40:32.419Z,10.65
2017-10-29T03:41:32.466Z,10.63
2017-10-29T03:42:32.502Z,10.76
2017-10-29T03:43:32.549Z,10.95
2017-10-29T03:44:32.661Z,10.94
2017-10-29T03:45:32.644Z,10.98
2017-10-29T03:46:32.686Z,10.92
2017-10-29T03:47:32.734Z,11.02
2017-10-29T03:48:32.779Z,10.94
2017-10-29T03:49:32.887Z,10.95
2017-10-29T03:50:32.870Z,11.01
2017-10-29T03:51:32.916Z,11.01
2017-10-29T03:52:32.967Z,10.91
2017-10-29T03:53:33.012Z,11.01
2017-10-29T03:54:33.132Z,11.01
2017-10-29T03:55:33.105Z,10.99
2017-10-29T03:56:33.151Z,10.95
2017-10-29T03:57:33.192Z,10.98
2017-10-29T03:58:33.238Z,10.91
2017-10-29T03:59:33.370Z,10.98
2017-10-29T04:00:33.334Z,10.96
2017-10-29T04:01:33.379Z,10.94
2017-10-29T04:02:33.427Z,10.95
2017-10-29T04:03:33.472Z,10.89
2017-10-29T04:04:33.593Z,10.77
2017-10-29T04:05:33.562Z,10.81
2017-10-29T04:06:33.611Z,10.84
2017-10-29T04:07:33.655Z,10.77
2017-10-29T04:08:33.705Z,10.81
2017-10-29T04:09:34.382Z,10.78
2017-10-29T04:10:33.860Z,10.77
2017-10-29T04:11:33.836Z,10.77
2017-10-29T04:12:33.886Z,10.84
2017-10-29T04:13:33.930Z,10.81
2017-10-29T04:14:33.977Z,10.83
2017-10-29T04:15:34.098Z,10.78
2017-10-29T04:16:34.070Z,10.83
2017-10-29T04:17:34.117Z,10.73
2017-10-29T04:18:34.162Z,10.74
2017-10-29T04:19:34.211Z,10.76
2017-10-29T04:20:34.319Z,10.70
2017-10-29T04:21:34.301Z,10.63
2017-10-29T04:22:34.347Z,10.56
2017-10-29T04:23:34.398Z,10.53
2017-10-29T04:24:34.439Z,10.52
2017-10-29T04:25:34.549Z,10.51
2017-10-29T04:26:34.529Z,10.52
2017-10-29T04:27:34.579Z,10.43
2017-10-29T04:28:34.625Z,10.44
2017-10-29T04:29:34.669Z,10.37
2017-10-29T04:30:34.780Z,10.44
2017-10-29T04:31:34.772Z,10.36
2017-10-29T04:32:34.807Z,10.32
2017-10-29T04:33:34.859Z,10.42
2017-10-29T04:34:34.900Z,10.24
2017-10-29T04:35:35.011Z,10.28
2017-10-29T04:36:34.994Z,10.30
2017-10-29T04:37:35.038Z,10.28
2017-10-29T04:38:35.083Z,10.19
2017-10-29T04:39:35.131Z,10.10
2017-10-29T04:40:35.241Z,10.01
2017-10-29T04:41:35.225Z,10.04
2017-10-29T04:42:35.271Z,9.91
2017-10-29T04:43:35.315Z,9.99
2017-10-29T04:44:35.362Z,9.99
2017-10-29T04:45:35.491Z,9.82
2017-10-29T04:46:35.456Z,9.81
2017-10-29T04:47:35.499Z,9.68
2017-10-29T04:48:35.546Z,9.60
2017-10-29T04:49:35.601Z,9.58
2017-10-29T04:50:35.705Z,9.53
2017-10-29T04:51:35.750Z,9.45
2017-10-29T04:52:35.730Z,9.42
2017-10-29T04:53:35.775Z,9.40
2017-10-29T04:54:35.821Z,9.50
2017-10-29T04:55:35.868Z,9.46
2017-10-29T04:56:35.980Z,9.50
2017-10-29T04:57:35.961Z,9.81
2017-10-29T04:58:36.005Z,9.82
2017-10-29T04:59:36.052Z,9.82
2017-10-29T05:00:36.095Z,10.01
2017-10-29T05:01:36.206Z,10.00
2017-10-29T05:02:36.187Z,10.07
2017-10-29T05:03:36.237Z,9.97
2017-10-29T05:04:36.280Z,9.91
2017-10-29T05:05:36.323Z,9.99
2017-10-29T05:06:36.434Z,9.97
2017-10-29T05:07:36.417Z,10.03
2017-10-29T05:08:36.461Z,9.89
2017-10-29T05:09:36.508Z,9.86
2017-10-29T05:10:36.552Z,9.82
2017-10-29T05:11:36.668Z,9.78
2017-10-29T05:12:36.645Z,9.88
2017-10-29T05:13:36.696Z,9.81
2017-10-29T05:14:36.736Z,9.86
2017-10-29T05:15:36.783Z,9.94
2017-10-29T05:16:36.894Z,9.99
2017-10-29T05:17:36.874Z,10.03
2017-10-29T05:18:36.917Z,10.21
2017-10-29T05:19:36.965Z,10.17
2017-10-29T05:20:37.011Z,10.33
2017-10-29T05:21:37.135Z,10.32
2017-10-29T05:22:37.102Z,10.37
2017-10-29T05:23:37.148Z,10.26
2017-10-29T05:24:37.192Z,10.25
2017-10-29T05:25:37.239Z,10.28
2017-10-29T05:26:37.349Z,10.25
2017-10-29T05:27:37.330Z,10.24
2017-10-29T05:28:37.377Z,10.36
2017-10-29T05:29:37.421Z,10.36
2017-10-29T05:30:37.467Z,10.52
2017-10-29T05:31:37.594Z,10.46
2017-10-29T05:32:37.562Z,10.52
2017-10-29T05:33:37.610Z,10.46
2017-10-29T05:34:37.654Z,10.51
2017-10-29T05:35:37.698Z,10.52
2017-10-29T05:36:37.810Z,10.52
2017-10-29T05:37:37.858Z,10.44
2017-10-29T05:38:37.835Z,10.37
2017-10-29T05:39:37.880Z,10.33
2017-10-29T05:40:37.926Z,10.51
2017-10-29T05:41:37.973Z,10.46
2017-10-29T05:42:38.083Z,10.51
2017-10-29T05:43:38.060Z,10.55
2017-10-29T05:44:38.110Z,10.55
2017-10-29T05:45:38.157Z,10.51
2017-10-29T05:46:38.201Z,10.51
2017-10-29T05:47:38.312Z,10.47
2017-10-29T05:48:38.294Z,10.53
2017-10-29T05:49:38.339Z,10.52
2017-10-29T05:50:38.385Z,10.53
2017-10-29T05:51:38.432Z,10.46
2017-10-29T05:52:38.542Z,10.43
2017-10-29T05:53:38.522Z,10.37
2017-10-29T05:54:38.567Z,10.40
2017-10-29T05:55:38.618Z,10.52
2017-10-29T05:56:38.660Z,10.40
2017-10-29T05:57:38.770Z,10.44
2017-10-29T05:58:38.754Z,10.52
2017-10-29T05:59:38.800Z,10.62
2017-10-29T06:00:38.847Z,10.60
2017-10-29T06:01:38.895Z,10.62
2017-10-29T06:02:39.001Z,10.63
2017-10-29T06:03:39.538Z,10.63
2017-10-29T06:04:39.031Z,10.60
2017-10-29T06:05:39.075Z,10.71
2017-10-29T06:06:39.122Z,10.59
2017-10-29T06:07:39.231Z,10.62
2017-10-29T06:08:39.220Z,10.53
2017-10-29T06:09:39.259Z,10.65
2017-10-29T06:10:39.305Z,10.74
2017-10-29T06:11:39.353Z,10.65
2017-10-29T06:12:39.460Z,10.58
2017-10-29T06:13:39.443Z,10.68
2017-10-29T06:14:39.488Z,10.74
2017-10-29T06:15:39.539Z,10.74
2017-10-29T06:16:39.580Z,10.76
2017-10-29T06:17:39.690Z,10.78
2017-10-29T06:18:39.674Z,10.80
2017-10-29T06:19:39.720Z,10.83
2017-10-29T06:20:39.765Z,10.86
2017-10-29T06:21:39.808Z,10.81
2017-10-29T06:22:39.922Z,10.89
2017-10-29T06:23:39.907Z,10.94
2017-10-29T06:24:39.948Z,10.84
2017-10-29T06:25:39.995Z,10.80
2017-10-29T06:26:40.042Z,10.89
2017-10-29T06:27:40.155Z,10.95
2017-10-29T06:28:40.135Z,10.92
2017-10-29T06:29:40.180Z,10.91
2017-10-29T06:30:40.226Z,10.95
2017-10-29T06:31:40.273Z,10.92
2017-10-29T06:32:40.388Z,10.92
2017-10-29T06:33:40.364Z,10.76
2017-10-29T06:34:40.412Z,10.76
2017-10-29T06:35:40.456Z,10.78
2017-10-29T06:36:40.504Z,10.81
2017-10-29T06:37:40.619Z,10.68
2017-10-29T06:38:40.597Z,10.81
2017-10-29T06:39:40.641Z,10.84
2017-10-29T06:40:40.688Z,10.86
2017-10-29T06:41:40.734Z,10.88
2017-10-29T06:42:40.866Z,10.95
2017-10-29T06:43:40.827Z,10.92
2017-10-29T06:44:40.875Z,10.84
2017-10-29T06:45:40.924Z,10.92
2017-10-29T06:46:40.970Z,10.78
2017-10-29T06:47:41.077Z,10.86
2017-10-29T06:48:41.058Z,10.73
2017-10-29T06:49:41.105Z,10.76
2017-10-29T06:50:41.152Z,10.77
2017-10-29T06:51:41.204Z,10.65
2017-10-29T06:52:41.338Z,10.65
2017-10-29T06:53:41.289Z,10.60
2017-10-29T06:54:41.335Z,10.65
2017-10-29T06:55:41.396Z,10.59
2017-10-29T06:56:41.427Z,10.62
2017-10-29T06:57:41.537Z,10.66
2017-10-29T06:58:41.522Z,10.52
2017-10-29T06:59:41.566Z,10.62
2017-10-29T07:00:41.614Z,10.63
2017-10-29T07:01:41.657Z,10.59
2017-10-29T07:02:41.770Z,10.59
2017-10-29T07:03:41.751Z,10.58
2017-10-29T07:04:41.797Z,10.59
2017-10-29T07:05:41.844Z,10.58
2017-10-29T07:06:41.890Z,10.58
2017-10-29T07:07:42.001Z,10.60
2017-10-29T07:08:41.981Z,10.59
2017-10-29T07:09:42.028Z,10.53
2017-10-29T07:10:42.080Z,10.52
2017-10-29T07:11:42.124Z,10.51
2017-10-29T07:12:43.042Z,10.52
2017-10-29T07:13:42.212Z,10.51
2017-10-29T07:14:42.260Z,10.47
2017-10-29T07:15:42.309Z,10.46
2017-10-29T07:16:42.352Z,10.47
2017-10-29T07:17:42.481Z,10.59
2017-10-29T07:18:42.443Z,10.59
2017-10-29T07:19:42.492Z,10.71
2017-10-29T07:20:42.537Z,10.73
2017-10-29T07:21:42.582Z,10.91
2017-10-29T07:22:42.712Z,10.94
2017-10-29T07:23:42.682Z,11.02
2017-10-29T07:24:42.724Z,10.99
2017-10-29T07:25:42.767Z,11.01
2017-10-29T07:26:42.815Z,10.98
2017-10-29T07:27:42.924Z,11.02
2017-10-29T07:28:42.971Z,10.98
2017-10-29T07:29:42.954Z,10.99
2017-10-29T07:30:42.998Z,10.99
2017-10-29T07:31:43.045Z,10.91
2017-10-29T07:32:43.091Z,11.03
2017-10-29T07:33:43.204Z,11.01
2017-10-29T07:34:43.184Z,11.03
2017-10-29T07:35:43.229Z,11.13
2017-10-29T07:36:43.276Z,11.10
2017-10-29T07:37:43.319Z,11.07
2017-10-29T07:38:43.433Z,11.07
2017-10-29T07:39:43.418Z,11.09
2017-10-29T07:40:43.459Z,11.03
2017-10-29T07:41:43.506Z,11.21
2017-10-29T07:42:43.554Z,11.25
2017-10-29T07:43:43.664Z,11.24
2017-10-29T07:44:43.649Z,11.25
2017-10-29T07:45:43.702Z,11.17
2017-10-29T07:46:43.737Z,11.13
2017-10-29T07:47:43.784Z,11.21
2017-10-29T07:48:43.894Z,11.09
2017-10-29T07:49:43.877Z,11.10
2017-10-29T07:50:43.922Z,11.09
2017-10-29T07:51:43.968Z,11.09
2017-10-29T07:52:44.021Z,11.07
2017-10-29T07:53:44.127Z,11.11
2017-10-29T07:54:44.109Z,11.11
2017-10-29T07:55:44.155Z,11.06
2017-10-29T07:56:44.202Z,11.01
2017-10-29T07:57:44.248Z,10.94
2017-10-29T07:58:44.356Z,11.01
2017-10-29T07:59:44.339Z,10.95
2017-10-29T08:00:44.386Z,10.92
2017-10-29T08:01:44.433Z,10.78
2017-10-29T08:02:44.480Z,10.84
2017-10-29T08:03:44.590Z,10.78
2017-10-29T08:04:44.572Z,10.71
2017-10-29T08:05:44.617Z,10.78
2017-10-29T08:06:44.663Z,10.77
2017-10-29T08:07:44.710Z,10.77
2017-10-29T08:08:44.841Z,10.73
2017-10-29T08:09:44.805Z,10.71
2017-10-29T08:10:44.850Z,10.77
2017-10-29T08:11:44.895Z,10.68
2017-10-29T08:12:44.941Z,10.68
2017-10-29T08:13:45.075Z,10.66
2017-10-29T08:14:45.033Z,10.63
2017-10-29T08:15:45.084Z,10.66
2017-10-29T08:16:45.128Z,10.68
2017-10-29T08:17:45.172Z,10.68
2017-10-29T08:18:45.286Z,10.59
2017-10-29T08:19:45.328Z,10.65
2017-10-29T08:20:45.311Z,10.63
2017-10-29T08:21:45.359Z,10.60
2017-10-29T08:22:45.410Z,10.63
2017-10-29T08:23:45.452Z,10.68
2017-10-29T08:24:45.660Z,10.65
2017-10-29T08:25:45.542Z,10.59
2017-10-29T08:26:45.593Z,10.56
2017-10-29T08:27:45.636Z,10.65
2017-10-29T08:28:45.683Z,10.65
2017-10-29T08:29:45.793Z,10.60
2017-10-29T08:30:45.773Z,10.60
2017-10-29T08:31:45.822Z,10.59
2017-10-29T08:32:45.866Z,10.59
2017-10-29T08:33:45.914Z,10.51
2017-10-29T08:34:46.024Z,10.46
2017-10-29T08:35:46.004Z,10.52
2017-10-29T08:36:46.051Z,10.44
2017-10-29T08:37:46.098Z,10.46
2017-10-29T08:38:46.144Z,10.47
2017-10-29T08:39:46.276Z,10.40
2017-10-29T08:40:46.234Z,10.43
2017-10-29T08:41:46.281Z,10.42
2017-10-29T08:42:46.328Z,10.43
2017-10-29T08:43:46.376Z,10.43
2017-10-29T08:44:46.504Z,10.40
2017-10-29T08:45:46.474Z,10.44
2017-10-29T08:46:46.516Z,10.51
2017-10-29T08:47:46.562Z,10.46
2017-10-29T08:48:46.603Z,10.60
2017-10-29T08:49:46.713Z,10.52
2017-10-29T08:50:46.760Z,10.53
2017-10-29T08:51:46.749Z,10.47
2017-10-29T08:52:46.795Z,10.44
2017-10-29T08:53:46.837Z,10.43
2017-10-29T08:54:46.881Z,10.47
2017-10-29T08:55:46.991Z,10.51
2017-10-29T08:56:46.979Z,10.52
2017-10-29T08:57:47.018Z,10.52
2017-10-29T08:58:47.065Z,10.46
2017-10-29T08:59:47.114Z,10.44
2017-10-29T09:00:47.476Z,10.43
2017-10-29T09:01:47.202Z,10.44
2017-10-29T09:02:47.249Z,10.47
2017-10-29T09:03:47.296Z,10.51
2017-10-29T09:04:47.342Z,10.51
2017-10-29T09:05:47.458Z,10.46
2017-10-29T09:06:47.437Z,10.53
2017-10-29T09:07:47.477Z,10.53
2017-10-29T09:08:47.524Z,10.56
2017-10-29T09:09:47.573Z,10.59
2017-10-29T09:10:47.687Z,10.53
2017-10-29T09:11:47.664Z,10.60
2017-10-29T09:12:47.710Z,10.59
2017-10-29T09:13:47.758Z,10.62
2017-10-29T09:14:47.804Z,10.59
2017-10-29T09:15:47.918Z,10.58
2017-10-29T09:16:47.900Z,10.60
2017-10-29T09:17:47.942Z,10.73
2017-10-29T09:18:47.988Z,10.65
2017-10-29T09:19:48.035Z,10.66
2017-10-29T09:20:48.146Z,10.63
2017-10-29T09:21:48.125Z,10.78
2017-10-29T09:22:48.172Z,10.77
2017-10-29T09:23:48.220Z,10.74
2017-10-29T09:24:48.266Z,10.83
2017-10-29T09:25:48.404Z,10.88
2017-10-29T09:26:48.358Z,10.80
2017-10-29T09:27:48.403Z,10.80
2017-10-29T09:28:48.449Z,10.80
2017-10-29T09:29:48.496Z,10.86
2017-10-29T09:30:48.622Z,10.83
2017-10-29T09:31:48.590Z,10.86
2017-10-29T09:32:48.634Z,10.91
2017-10-29T09:33:48.680Z,10.86
2017-10-29T09:34:48.725Z,10.78
2017-10-29T09:35:48.843Z,10.77
2017-10-29T09:36:48.881Z,10.77
2017-10-29T09:37:48.867Z,10.88
2017-10-29T09:38:48.911Z,10.78
2017-10-29T09:39:48.957Z,10.81
2017-10-29T09:40:49.002Z,10.78
2017-10-29T09:41:49.112Z,10.84
2017-10-29T09:42:49.093Z,10.84
2017-10-29T09:43:49.143Z,10.91
2017-10-29T09:44:49.188Z,10.94
2017-10-29T09:45:49.241Z,10.92
2017-10-29T09:46:49.348Z,10.95
2017-10-29T09:47:49.328Z,10.96
2017-10-29T09:48:49.373Z,10.92
2017-10-29T09:49:49.416Z,11.10
2017-10-29T09:50:49.463Z,11.07
2017-10-29T09:51:49.576Z,11.07
2017-10-29T09:52:49.557Z,11.07
2017-10-29T09:53:49.603Z,11.14
2017-10-29T09:54:49.661Z,11.19
2017-10-29T09:55:49.703Z,11.19
2017-10-29T09:56:49.828Z,11.19
2017-10-29T09:57:49.788Z,11.28
2017-10-29T09:58:49.834Z,11.19
2017-10-29T09:59:49.889Z,11.11
2017-10-29T10:00:49.930Z,11.25
2017-10-29T10:01:50.059Z,11.28
2017-10-29T10:02:50.021Z,11.31
2017-10-29T10:03:50.068Z,11.29
2017-10-29T10:04:50.115Z,11.32
2017-10-29T10:05:50.161Z,11.31
2017-10-29T10:06:50.271Z,11.31
2017-10-29T10:07:50.252Z,11.32
2017-10-29T10:08:50.299Z,11.32
2017-10-29T10:09:50.345Z,11.34
2017-10-29T10:10:50.406Z,11.32
2017-10-29T10:11:50.522Z,11.32
2017-10-29T10:12:50.485Z,11.28
2017-10-29T10:13:50.532Z,11.29
2017-10-29T10:14:50.581Z,11.25
2017-10-29T10:15:50.626Z,11.31
2017-10-29T10:16:50.755Z,11.32
2017-10-29T10:17:50.715Z,11.32
2017-10-29T10:18:50.763Z,11.34
2017-10-29T10:19:50.809Z,11.41
2017-10-29T10:20:50.857Z,11.34
2017-10-29T10:21:50.968Z,11.41
2017-10-29T10:22:51.015Z,11.41
2017-10-29T10:23:50.997Z,11.38
2017-10-29T10:24:51.042Z,11.41
2017-10-29T10:25:51.090Z,11.41
2017-10-29T10:26:51.200Z,11.47
2017-10-29T10:27:51.246Z,11.47
2017-10-29T10:28:51.230Z,11.52
2017-10-29T10:29:51.276Z,11.46
2017-10-29T10:30:51.320Z,11.50
2017-10-29T10:31:51.370Z,11.47
2017-10-29T10:32:51.485Z,11.49
2017-10-29T10:33:51.460Z,11.53
2017-10-29T10:34:51.512Z,11.47
2017-10-29T10:35:51.557Z,11.49
2017-10-29T10:36:51.602Z,11.52
2017-10-29T10:37:51.714Z,11.50
2017-10-29T10:38:51.697Z,11.52
2017-10-29T10:39:51.740Z,11.53
2017-10-29T10:40:51.792Z,11.52
2017-10-29T10:41:51.833Z,11.56
2017-10-29T10:42:51.944Z,11.49
2017-10-29T10:43:51.927Z,11.52
2017-10-29T10:44:51.976Z,11.50
2017-10-29T10:45:52.023Z,11.54
2017-10-29T10:46:52.069Z,11.49
2017-10-29T10:47:52.182Z,11.50
2017-10-29T10:48:52.165Z,11.53
2017-10-29T10:49:52.222Z,11.59
2017-10-29T10:50:52.259Z,11.53
2017-10-29T10:51:52.300Z,11.53
2017-10-29T10:52:52.414Z,11.57
2017-10-29T10:53:52.394Z,11.61
2017-10-29T10:54:52.441Z,11.57
2017-10-29T10:55:52.487Z,11.57
2017-10-29T10:56:52.534Z,11.67
2017-10-29T10:57:52.648Z,11.62
2017-10-29T10:58:52.628Z,11.57
2017-10-29T10:59:52.675Z,11.57
2017-10-29T11:00:52.721Z,11.56
2017-10-29T11:01:53.422Z,11.59
2017-10-29T11:02:52.897Z,11.67
2017-10-29T11:03:52.861Z,11.70
2017-10-29T11:04:52.907Z,11.57
2017-10-29T11:05:52.954Z,11.68
2017-10-29T11:06:53.001Z,11.68
2017-10-29T11:07:53.114Z,11.77
2017-10-29T11:08:53.166Z,11.77
2017-10-29T11:09:53.146Z,11.82
2017-10-29T11:10:53.188Z,11.75
2017-10-29T11:11:53.238Z,11.78
2017-10-29T11:12:53.283Z,11.80
2017-10-29T11:13:53.391Z,11.85
2017-10-29T11:14:53.377Z,11.78
2017-10-29T11:15:53.427Z,11.82
2017-10-29T11:16:53.474Z,11.80
2017-10-29T11:17:53.515Z,11.87
2017-10-29T11:18:53.627Z,11.87
2017-10-29T11:19:53.608Z,11.72
2017-10-29T11:20:53.657Z,11.78
2017-10-29T11:21:53.707Z,11.75
2017-10-29T11:22:53.751Z,11.82
2017-10-29T11:23:53.861Z,11.72
2017-10-29T11:24:53.844Z,11.82
2017-10-29T11:25:53.889Z,11.70
2017-10-29T11:26:53.938Z,11.86
2017-10-29T11:27:53.985Z,11.85
2017-10-29T11:28:54.094Z,11.75
2017-10-29T11:29:54.078Z,11.85
2017-10-29T11:30:54.127Z,11.75
2017-10-29T11:31:54.172Z,11.83
2017-10-29T11:32:54.218Z,11.75
2017-10-29T11:33:54.346Z,11.83
2017-10-29T11:34:54.319Z,11.86
2017-10-29T11:35:54.359Z,11.82
2017-10-29T11:36:54.407Z,11.80
2017-10-29T11:37:54.458Z,11.85
2017-10-29T11:38:54.587Z,11.75
2017-10-29T11:39:54.547Z,11.85
2017-10-29T11:40:54.594Z,11.89
2017-10-29T11:41:54.641Z,11.99
2017-10-29T11:42:54.688Z,11.93
2017-10-29T11:43:54.819Z,11.90
2017-10-29T11:44:54.783Z,11.94
2017-10-29T11:45:54.825Z,11.86
2017-10-29T11:46:54.876Z,11.89
2017-10-29T11:47:54.920Z,11.86
2017-10-29T11:48:55.034Z,11.93
2017-10-29T11:49:55.080Z,11.87
2017-10-29T11:50:55.064Z,11.82
2017-10-29T11:51:55.119Z,11.89
2017-10-29T11:52:55.169Z,11.87
2017-10-29T11:53:55.203Z,11.87
2017-10-29T11:54:55.314Z,11.83
2017-10-29T11:55:55.298Z,11.94
2017-10-29T11:56:55.344Z,11.94
2017-10-29T11:57:55.390Z,11.96
2017-10-29T11:58:55.437Z,11.96
2017-10-29T11:59:55.549Z,11.96
2017-10-29T12:00:55.538Z,12.02
2017-10-29T12:01:55.580Z,12.02
2017-10-29T12:02:55.627Z,12.02
2017-10-29T12:03:55.674Z,12.11
2017-10-29T12:04:55.791Z,12.11
2017-10-29T12:05:55.775Z,12.12
2017-10-29T12:06:55.813Z,12.20
2017-10-29T12:07:55.860Z,12.19
2017-10-29T12:08:55.909Z,12.21
2017-10-29T12:09:56.130Z,12.24
2017-10-29T12:10:56.003Z,12.31
2017-10-29T12:11:56.049Z,12.30
2017-10-29T12:12:56.096Z,12.31
2017-10-29T12:13:56.150Z,12.20
2017-10-29T12:14:56.252Z,12.27
2017-10-29T12:15:56.241Z,12.34
2017-10-29T12:16:56.285Z,12.24
2017-10-29T12:17:56.337Z,12.31
2017-10-29T12:18:56.378Z,12.29
2017-10-29T12:19:56.491Z,12.29
2017-10-29T12:20:56.472Z,12.30
2017-10-29T12:21:56.521Z,12.31
2017-10-29T12:22:56.568Z,12.26
2017-10-29T12:23:56.615Z,12.31
2017-10-29T12:24:56.738Z,12.29
2017-10-29T12:25:56.708Z,12.24
2017-10-29T12:26:56.757Z,12.31
2017-10-29T12:27:56.805Z,12.34
2017-10-29T12:28:56.855Z,12.41
2017-10-29T12:29:56.961Z,12.51
2017-10-29T12:30:57.018Z,12.46
2017-10-29T12:31:56.991Z,12.33
2017-10-29T12:32:57.048Z,12.39
2017-10-29T12:33:57.089Z,12.41
2017-10-29T12:34:57.208Z,12.33
2017-10-29T12:35:57.244Z,12.46
2017-10-29T12:36:57.229Z,12.29
2017-10-29T12:37:57.277Z,12.24
2017-10-29T12:38:57.326Z,12.21
2017-10-29T12:39:57.368Z,12.24
2017-10-29T12:40:57.483Z,12.30
2017-10-29T12:41:57.466Z,12.31
2017-10-29T12:42:57.512Z,12.31
2017-10-29T12:43:57.573Z,12.20
2017-10-29T12:44:57.605Z,12.21
2017-10-29T12:45:57.718Z,12.26
2017-10-29T12:46:57.702Z,12.13
2017-10-29T12:47:57.749Z,12.26
2017-10-29T12:48:57.795Z,12.26
2017-10-29T12:49:57.849Z,12.21
2017-10-29T12:50:57.954Z,12.30
2017-10-29T12:51:57.938Z,12.23
2017-10-29T12:52:57.985Z,12.26
2017-10-29T12:53:58.035Z,12.27
2017-10-29T12:54:58.078Z,12.12
2017-10-29T12:55:58.200Z,12.15
2017-10-29T12:56:58.176Z,12.27
2017-10-29T12:57:58.220Z,12.23
2017-10-29T12:58:58.268Z,12.26
2017-10-29T12:59:58.319Z,12.19